Time;durP1;ratioP1;P1;durP2;ratioP2;P2;SDS_P1;SDS_P2;PMS_P1;PMS_P2;Temp;Humidity;BMP_temperature;BMP_pressure;BME280_temperature;BME280_humidity;BME280_pressure;Samples;Min_cycle;Max_cycle;Signal;HPM_P1;HPM_P2
2024/04/06 00:01:48;;;;;;;;;;;13.90;99.90;;;;;;4999571;28;19906;-54
2024/04/06 00:04:14;;;;;;;;;;;13.90;99.90;;;;;;4999717;28;19906;-54
2024/04/06 00:06:39;;;;;;;;;;;13.90;99.90;;;;;;4999424;28;19905;-54
2024/04/06 00:09:05;;;;;;;;;;;13.90;99.90;;;;;;4999440;28;19910;-51
2024/04/06 00:11:30;;;;;;;;;;;13.90;99.90;;;;;;4999442;28;20362;-51
2024/04/06 00:13:56;;;;;;;;;;;13.90;99.90;;;;;;4999150;28;19953;-55
2024/04/06 00:16:21;;;;;;;;;;;13.90;99.90;;;;;;4997951;28;19910;-55
2024/04/06 00:18:47;;;;;;;;;;;13.90;99.90;;;;;;4999739;28;19905;-55
2024/04/06 00:21:12;;;;;;;;;;;13.90;99.90;;;;;;4999741;28;19932;-55
2024/04/06 00:23:38;;;;;;;;;;;13.90;99.90;;;;;;4999803;28;19912;-53
2024/04/06 00:26:03;;;;;;;;;;;13.90;99.90;;;;;;4999115;28;19948;-52
2024/04/06 00:28:29;;;;;;;;;;;13.90;99.90;;;;;;4999566;28;19913;-54
2024/04/06 00:30:54;;;;;;;;;;;13.90;99.90;;;;;;4999326;28;19906;-55
2024/04/06 00:33:20;;;;;;;;;;;13.90;99.90;;;;;;4997103;28;19910;-56
2024/04/06 00:35:46;;;;;;;;;;;13.90;99.90;;;;;;4996109;28;19905;-53
2024/04/06 00:38:11;;;;;;;;;;;13.90;99.90;;;;;;4995877;28;19906;-56
2024/04/06 00:40:36;;;;;;;;;;;13.90;99.90;;;;;;4994860;28;20428;-55
2024/04/06 00:43:03;;;;;;;;;;;13.90;99.90;;;;;;4995753;28;19905;-53
2024/04/06 00:45:28;;;;;;;;;;;13.80;99.90;;;;;;4996073;28;19953;-55
2024/04/06 00:47:54;;;;;;;;;;;13.90;99.90;;;;;;4995788;28;20054;-55
2024/04/06 00:50:19;;;;;;;;;;;13.80;99.90;;;;;;4995862;28;19956;-53
2024/04/06 00:52:45;;;;;;;;;;;13.80;99.90;;;;;;4995567;28;19972;-54
2024/04/06 00:55:10;;;;;;;;;;;13.80;99.90;;;;;;4995840;28;19906;-56
2024/04/06 00:57:36;;;;;;;;;;;13.80;99.90;;;;;;4995589;28;20353;-53
2024/04/06 01:00:02;;;;;;;;;;;13.80;99.90;;;;;;4995601;28;19906;-57
2024/04/06 01:02:28;;;;;;;;;;;13.80;99.90;;;;;;4995865;28;20326;-54
2024/04/06 01:04:53;;;;;;;;;;;13.80;99.90;;;;;;4978960;28;19920;-56
2024/04/06 01:07:20;;;;;;;;;;;13.80;99.90;;;;;;4978284;28;19909;-52
2024/04/06 01:09:46;;;;;;;;;;;13.80;99.90;;;;;;4978991;28;19972;-55
2024/04/06 01:12:12;;;;;;;;;;;13.80;99.90;;;;;;4995992;28;20290;-54
2024/04/06 01:14:37;;;;;;;;;;;13.80;99.90;;;;;;4995888;28;19914;-55
2024/04/06 01:17:03;;;;;;;;;;;13.80;99.90;;;;;;4996205;28;19910;-55
2024/04/06 01:19:29;;;;;;;;;;;13.80;99.90;;;;;;4978676;28;19961;-55
2024/04/06 01:21:54;;;;;;;;;;;13.80;99.90;;;;;;4994816;28;19929;-56
2024/04/06 01:24:23;;;;;;;;;;;13.80;99.90;;;;;;4996078;28;20353;-53
2024/04/06 01:26:48;;;;;;;;;;;13.80;99.90;;;;;;4995854;28;20004;-53
2024/04/06 01:29:14;;;;;;;;;;;13.80;99.90;;;;;;4978343;28;20326;-57
2024/04/06 01:31:40;;;;;;;;;;;13.80;99.90;;;;;;4979065;28;19992;-56
2024/04/06 01:34:09;;;;;;;;;;;13.70;99.90;;;;;;4978080;28;20366;-56
2024/04/06 01:36:34;;;;;;;;;;;13.70;99.90;;;;;;4978477;28;20336;-56
2024/04/06 01:39:00;;;;;;;;;;;13.70;99.90;;;;;;4995923;28;19906;-57
2024/04/06 01:41:25;;;;;;;;;;;13.70;99.90;;;;;;4996153;28;19905;-56
2024/04/06 01:43:51;;;;;;;;;;;13.70;99.90;;;;;;4978835;28;19925;-56
2024/04/06 01:46:17;;;;;;;;;;;13.70;99.90;;;;;;4979298;28;19906;-56
2024/04/06 01:48:43;;;;;;;;;;;13.60;99.90;;;;;;4979407;28;19916;-55
2024/04/06 01:51:08;;;;;;;;;;;13.60;99.90;;;;;;4978336;28;19906;-57
2024/04/06 01:53:34;;;;;;;;;;;13.50;99.90;;;;;;4977963;28;20000;-57
2024/04/06 01:56:00;;;;;;;;;;;13.30;99.90;;;;;;4977577;28;20003;-57
2024/04/06 01:58:25;;;;;;;;;;;13.20;99.90;;;;;;4977774;28;19957;-57
2024/04/06 02:00:51;;;;;;;;;;;13.20;99.90;;;;;;4977254;28;19997;-57
2024/04/06 02:03:17;;;;;;;;;;;13.10;99.90;;;;;;4994877;28;19906;-57
2024/04/06 02:05:42;;;;;;;;;;;13.00;99.90;;;;;;4995021;28;19909;-57
2024/04/06 02:08:08;;;;;;;;;;;12.90;99.90;;;;;;4993807;28;20276;-57
2024/04/06 02:10:33;;;;;;;;;;;12.90;99.90;;;;;;4994966;28;19909;-56
2024/04/06 02:12:59;;;;;;;;;;;12.90;99.90;;;;;;4976991;28;19916;-53
2024/04/06 02:15:25;;;;;;;;;;;12.90;99.90;;;;;;4994618;28;19906;-56
2024/04/06 02:17:50;;;;;;;;;;;12.90;99.90;;;;;;4977144;28;20004;-52
2024/04/06 02:20:16;;;;;;;;;;;12.90;99.90;;;;;;4977609;28;19960;-55
2024/04/06 02:22:41;;;;;;;;;;;12.90;99.90;;;;;;4977161;28;20258;-55
2024/04/06 02:25:07;;;;;;;;;;;12.90;99.90;;;;;;4977181;28;19906;-57
2024/04/06 02:27:33;;;;;;;;;;;12.80;99.90;;;;;;4977441;28;20000;-56
2024/04/06 02:29:59;;;;;;;;;;;12.80;99.90;;;;;;4976870;28;19910;-54
2024/04/06 02:32:26;;;;;;;;;;;12.80;99.90;;;;;;4976642;28;19961;-57
2024/04/06 02:34:52;;;;;;;;;;;12.70;99.90;;;;;;4994345;28;19906;-56
2024/04/06 02:37:17;;;;;;;;;;;12.70;99.90;;;;;;4977176;28;19906;-55
2024/04/06 02:39:43;;;;;;;;;;;12.70;99.90;;;;;;4976968;28;20047;-56
2024/04/06 02:42:08;;;;;;;;;;;12.60;99.90;;;;;;4994379;28;19957;-56
2024/04/06 02:44:34;;;;;;;;;;;12.50;99.90;;;;;;4992753;28;19909;-54
2024/04/06 02:46:59;;;;;;;;;;;12.40;99.90;;;;;;4993821;28;19953;-53
2024/04/06 02:49:24;;;;;;;;;;;12.40;99.90;;;;;;4993835;28;19909;-57
2024/04/06 02:51:51;;;;;;;;;;;12.30;99.90;;;;;;4993829;28;19957;-53
2024/04/06 02:54:16;;;;;;;;;;;12.30;99.90;;;;;;4994483;28;19906;-52
2024/04/06 02:56:41;;;;;;;;;;;12.30;99.90;;;;;;4993714;28;20285;-52
2024/04/06 02:59:07;;;;;;;;;;;12.40;99.90;;;;;;4993812;28;19912;-55
2024/04/06 03:01:32;;;;;;;;;;;12.40;99.90;;;;;;4993622;28;19956;-53
2024/04/06 03:03:58;;;;;;;;;;;12.40;99.90;;;;;;4993667;28;20020;-52
2024/04/06 03:06:23;;;;;;;;;;;12.40;99.90;;;;;;4993365;28;19909;-54
2024/04/06 03:08:49;;;;;;;;;;;12.40;99.90;;;;;;4993602;28;19948;-54
2024/04/06 03:11:14;;;;;;;;;;;12.50;99.90;;;;;;4993387;28;19964;-55
2024/04/06 03:13:40;;;;;;;;;;;12.50;99.90;;;;;;4993188;28;19918;-54
2024/04/06 03:16:06;;;;;;;;;;;12.50;99.90;;;;;;4993277;28;19906;-53
2024/04/06 03:18:31;;;;;;;;;;;12.50;99.90;;;;;;4993584;28;19909;-55
2024/04/06 03:20:57;;;;;;;;;;;12.40;99.90;;;;;;4975863;28;19992;-54
2024/04/06 03:23:23;;;;;;;;;;;12.50;99.90;;;;;;4993606;28;19933;-55
2024/04/06 03:25:48;;;;;;;;;;;12.50;99.90;;;;;;4993851;28;20091;-55
2024/04/06 03:28:16;;;;;;;;;;;12.50;99.90;;;;;;4993184;28;19945;-55
2024/04/06 03:30:41;;;;;;;;;;;12.40;99.90;;;;;;4993811;28;19913;-53
2024/04/06 03:33:07;;;;;;;;;;;12.40;99.90;;;;;;4993342;28;20289;-54
2024/04/06 03:35:32;;;;;;;;;;;12.30;99.90;;;;;;4993593;28;19906;-54
2024/04/06 03:37:57;;;;;;;;;;;12.30;99.90;;;;;;4993319;28;20358;-54
2024/04/06 03:40:23;;;;;;;;;;;12.30;99.90;;;;;;4993224;28;20416;-53
2024/04/06 03:42:58;;;;;;;;;;;12.30;99.90;;;;;;4993245;28;19905;-55
2024/04/06 03:45:25;;;;;;;;;;;12.20;99.90;;;;;;4993332;28;20373;-53
2024/04/06 03:47:50;;;;;;;;;;;12.10;99.90;;;;;;4993487;28;20281;-54
2024/04/06 03:50:16;;;;;;;;;;;12.10;99.90;;;;;;4993615;28;20037;-55
2024/04/06 03:52:41;;;;;;;;;;;12.10;99.90;;;;;;4993176;28;19910;-52
2024/04/06 03:55:07;;;;;;;;;;;12.10;99.90;;;;;;4993337;28;20304;-52
2024/04/06 03:57:33;;;;;;;;;;;12.10;99.90;;;;;;4993527;28;19913;-54
2024/04/06 03:59:59;;;;;;;;;;;12.00;99.90;;;;;;4992804;28;19993;-54
2024/04/06 04:02:25;;;;;;;;;;;12.00;99.90;;;;;;4992888;28;19910;-56
2024/04/06 04:04:50;;;;;;;;;;;12.00;99.90;;;;;;4993136;28;19905;-53
2024/04/06 04:07:16;;;;;;;;;;;12.00;99.90;;;;;;4993180;28;19988;-52
2024/04/06 04:09:41;;;;;;;;;;;12.00;99.90;;;;;;4995705;28;19905;-53
2024/04/06 04:12:07;;;;;;;;;;;11.90;99.90;;;;;;4996591;28;20366;-53
2024/04/06 04:14:32;;;;;;;;;;;11.90;99.90;;;;;;4996421;28;19957;-53
2024/04/06 04:16:58;;;;;;;;;;;11.90;99.90;;;;;;4996762;28;20413;-54
2024/04/06 04:19:23;;;;;;;;;;;11.80;99.90;;;;;;4997134;28;19956;-53
2024/04/06 04:21:49;;;;;;;;;;;11.80;99.90;;;;;;4996810;28;19913;-54
2024/04/06 04:24:15;;;;;;;;;;;11.80;99.90;;;;;;4997120;28;20337;-54
2024/04/06 04:26:41;;;;;;;;;;;11.70;99.90;;;;;;4996790;28;19906;-56
2024/04/06 04:29:06;;;;;;;;;;;11.70;99.90;;;;;;4996479;28;20229;-53
2024/04/06 04:31:32;;;;;;;;;;;11.70;99.90;;;;;;4996577;28;20385;-53
2024/04/06 04:33:57;;;;;;;;;;;11.70;99.90;;;;;;4978584;28;20330;-54
2024/04/06 04:36:23;;;;;;;;;;;11.70;99.90;;;;;;4996397;28;19909;-54
2024/04/06 04:38:49;;;;;;;;;;;11.70;99.90;;;;;;4995937;28;19907;-54
2024/04/06 04:41:15;;;;;;;;;;;11.70;99.90;;;;;;4996072;28;20005;-52
2024/04/06 04:43:40;;;;;;;;;;;11.70;99.90;;;;;;4996502;28;20373;-53
2024/04/06 04:46:06;;;;;;;;;;;11.70;99.90;;;;;;4996286;28;19905;-55
2024/04/06 04:48:50;;;;;;;;;;;11.60;99.90;;;;;;4996323;28;20381;-51
2024/04/06 04:51:16;;;;;;;;;;;11.60;99.90;;;;;;4996125;28;19909;-53
2024/04/06 04:53:41;;;;;;;;;;;11.60;99.90;;;;;;4978883;28;19905;-54
2024/04/06 04:56:07;;;;;;;;;;;11.60;99.90;;;;;;4995926;28;19917;-54
2024/04/06 04:58:32;;;;;;;;;;;11.60;99.90;;;;;;4995616;28;20001;-55
2024/04/06 05:00:57;;;;;;;;;;;11.70;99.90;;;;;;4995485;28;19906;-56
2024/04/06 05:03:23;;;;;;;;;;;11.70;99.90;;;;;;4995925;28;20385;-54
2024/04/06 05:05:48;;;;;;;;;;;11.60;99.90;;;;;;4996087;28;19928;-55
2024/04/06 05:08:14;;;;;;;;;;;11.70;99.90;;;;;;4995914;28;19910;-52
2024/04/06 05:10:40;;;;;;;;;;;11.70;99.90;;;;;;4995890;28;20009;-56
2024/04/06 05:13:05;;;;;;;;;;;11.70;99.90;;;;;;4995499;28;19909;-59
2024/04/06 05:15:31;;;;;;;;;;;11.80;99.90;;;;;;4995815;28;19909;-52
2024/04/06 05:17:56;;;;;;;;;;;11.90;99.90;;;;;;4995608;28;19906;-57
2024/04/06 05:20:22;;;;;;;;;;;11.90;99.90;;;;;;4995502;28;19956;-54
2024/04/06 05:22:47;;;;;;;;;;;12.10;99.90;;;;;;4995676;28;20000;-51
2024/04/06 05:25:12;;;;;;;;;;;12.20;99.90;;;;;;4995816;28;19956;-56
2024/04/06 05:27:38;;;;;;;;;;;12.30;99.90;;;;;;4995014;28;20094;-52
2024/04/06 05:30:04;;;;;;;;;;;12.40;99.90;;;;;;4995511;28;20341;-56
2024/04/06 05:32:30;;;;;;;;;;;12.50;99.90;;;;;;4995442;28;19945;-54
2024/04/06 05:34:55;;;;;;;;;;;12.70;99.90;;;;;;4995460;28;19913;-52
2024/04/06 05:37:21;;;;;;;;;;;12.80;99.90;;;;;;4994928;28;19906;-52
2024/04/06 05:39:46;;;;;;;;;;;12.90;99.90;;;;;;4977673;28;19913;-54
2024/04/06 05:42:11;;;;;;;;;;;13.10;99.90;;;;;;4995137;28;20301;-54
2024/04/06 05:44:37;;;;;;;;;;;13.20;99.90;;;;;;4994165;28;19906;-54
2024/04/06 05:47:02;;;;;;;;;;;13.40;99.90;;;;;;4995370;28;19909;-54
2024/04/06 05:49:28;;;;;;;;;;;13.60;99.90;;;;;;4995230;28;19945;-54
2024/04/06 05:51:53;;;;;;;;;;;13.90;99.90;;;;;;4995021;28;19910;-54
2024/04/06 05:54:20;;;;;;;;;;;14.20;99.90;;;;;;4977521;28;19909;-54
2024/04/06 05:56:45;;;;;;;;;;;14.40;99.90;;;;;;4997990;28;19910;-54
2024/04/06 05:59:11;;;;;;;;;;;14.70;99.90;;;;;;4994688;28;20004;-56
2024/04/06 06:01:36;;;;;;;;;;;14.80;99.90;;;;;;4994784;28;19905;-55
2024/04/06 06:04:02;;;;;;;;;;;15.10;99.90;;;;;;4994563;28;19906;-54
2024/04/06 06:06:27;;;;;;;;;;;15.40;99.90;;;;;;4994610;28;19913;-56
2024/04/06 06:08:53;;;;;;;;;;;15.80;99.90;;;;;;4994616;28;19910;-53
2024/04/06 06:11:18;;;;;;;;;;;16.50;99.90;;;;;;4994495;28;20297;-53
2024/04/06 06:13:44;;;;;;;;;;;17.10;99.90;;;;;;4994374;28;19928;-53
2024/04/06 06:16:09;;;;;;;;;;;17.60;99.90;;;;;;4991988;28;19917;-54
2024/04/06 06:18:35;;;;;;;;;;;17.80;99.90;;;;;;4987170;28;19905;-54
2024/04/06 06:21:04;;;;;;;;;;;17.80;99.90;;;;;;4994628;28;20284;-53
2024/04/06 06:23:30;;;;;;;;;;;17.50;99.90;;;;;;4994277;28;20312;-53
2024/04/06 06:25:55;;;;;;;;;;;17.40;99.90;;;;;;4994500;28;19996;-56
2024/04/06 06:28:20;;;;;;;;;;;17.30;99.90;;;;;;4993855;28;20398;-54
2024/04/06 06:30:46;;;;;;;;;;;17.10;99.90;;;;;;4993645;28;19905;-51
2024/04/06 06:33:11;;;;;;;;;;;17.20;99.90;;;;;;4993234;28;19912;-52
2024/04/06 06:35:37;;;;;;;;;;;17.10;99.90;;;;;;4994072;28;20452;-54
2024/04/06 06:38:04;;;;;;;;;;;17.20;99.90;;;;;;4993906;28;19905;-54
2024/04/06 06:40:29;;;;;;;;;;;17.70;99.90;;;;;;4993843;28;19917;-52
2024/04/06 06:42:55;;;;;;;;;;;18.20;99.90;;;;;;4993966;28;19910;-53
2024/04/06 06:45:20;;;;;;;;;;;18.50;99.90;;;;;;4994137;28;19905;-55
2024/04/06 06:47:46;;;;;;;;;;;18.90;99.90;;;;;;4994015;28;20325;-53
2024/04/06 06:50:12;;;;;;;;;;;19.80;99.90;;;;;;4993850;28;19941;-52
2024/04/06 06:52:38;;;;;;;;;;;20.50;99.90;;;;;;4993794;28;19906;-55
2024/04/06 06:55:03;;;;;;;;;;;21.50;99.90;;;;;;4993769;28;20000;-58
2024/04/06 06:57:29;;;;;;;;;;;21.90;99.90;;;;;;4993517;28;19916;-55
2024/04/06 06:59:55;;;;;;;;;;;22.70;99.60;;;;;;4993895;28;19906;-56
2024/04/06 07:02:20;;;;;;;;;;;22.90;99.90;;;;;;4993375;28;20377;-56
2024/04/06 07:04:45;;;;;;;;;;;23.20;98.60;;;;;;4993506;28;20255;-54
2024/04/06 07:07:11;;;;;;;;;;;22.60;96.80;;;;;;4993706;28;19956;-55
2024/04/06 07:09:37;;;;;;;;;;;22.30;97.00;;;;;;4993581;28;20346;-57
2024/04/06 07:12:02;;;;;;;;;;;22.40;99.30;;;;;;4993879;28;19906;-56
2024/04/06 07:14:28;;;;;;;;;;;22.70;98.40;;;;;;4993574;28;19964;-57
2024/04/06 07:16:53;;;;;;;;;;;23.80;97.40;;;;;;4993776;28;19949;-56
2024/04/06 07:19:19;;;;;;;;;;;24.60;94.70;;;;;;4993461;28;19910;-56
2024/04/06 07:21:44;;;;;;;;;;;24.20;94.50;;;;;;4993332;28;19906;-55
2024/04/06 07:24:10;;;;;;;;;;;23.80;96.00;;;;;;4993673;28;19949;-56
2024/04/06 07:26:35;;;;;;;;;;;24.00;95.00;;;;;;4992608;28;20000;-55
2024/04/06 07:29:01;;;;;;;;;;;24.60;94.00;;;;;;4992840;28;19917;-54
2024/04/06 07:31:26;;;;;;;;;;;25.00;92.80;;;;;;4993043;28;19906;-57
2024/04/06 07:33:52;;;;;;;;;;;25.60;93.20;;;;;;4993361;28;19909;-54
2024/04/06 07:36:17;;;;;;;;;;;25.10;91.80;;;;;;4993209;28;19917;-57
2024/04/06 07:38:43;;;;;;;;;;;25.60;91.90;;;;;;4992638;28;19913;-56
2024/04/06 07:41:09;;;;;;;;;;;26.20;92.00;;;;;;4992631;28;20337;-57
2024/04/06 07:43:35;;;;;;;;;;;26.00;90.40;;;;;;4995083;28;19960;-56
2024/04/06 07:46:00;;;;;;;;;;;27.00;89.70;;;;;;4997237;28;19913;-57
2024/04/06 07:48:26;;;;;;;;;;;28.20;88.70;;;;;;4996181;28;19916;-57
2024/04/06 07:50:51;;;;;;;;;;;28.40;83.20;;;;;;4996444;28;20289;-58
2024/04/06 07:53:17;;;;;;;;;;;28.20;83.90;;;;;;4995092;28;19906;-55
2024/04/06 07:55:42;;;;;;;;;;;28.90;81.70;;;;;;4995266;28;20554;-55
2024/04/06 07:58:08;;;;;;;;;;;28.80;78.10;;;;;;5004939;28;20337;-57
2024/04/06 08:00:34;;;;;;;;;;;28.50;77.90;;;;;;4996278;28;19910;-55
2024/04/06 08:02:59;;;;;;;;;;;27.90;77.90;;;;;;4996056;28;20377;-57
2024/04/06 08:05:25;;;;;;;;;;;27.70;79.70;;;;;;4996483;28;20369;-56
2024/04/06 08:07:50;;;;;;;;;;;28.30;75.90;;;;;;4996075;28;19949;-56
2024/04/06 08:10:17;;;;;;;;;;;28.40;79.70;;;;;;4996243;28;19906;-57
2024/04/06 08:12:43;;;;;;;;;;;28.70;79.90;;;;;;4996403;28;20270;-56
2024/04/06 08:15:09;;;;;;;;;;;29.30;76.30;;;;;;4996301;28;19913;-57
2024/04/06 08:17:39;;;;;;;;;;;29.60;74.10;;;;;;5008219;28;20341;-56
2024/04/06 08:20:04;;;;;;;;;;;29.10;75.80;;;;;;4999593;28;20436;-56
2024/04/06 08:22:30;;;;;;;;;;;29.50;73.70;;;;;;4995845;28;19956;-56
2024/04/06 08:24:55;;;;;;;;;;;29.00;74.90;;;;;;4995982;28;19955;-57
2024/04/06 08:27:21;;;;;;;;;;;29.40;72.70;;;;;;5005326;28;19991;-56
2024/04/06 08:29:48;;;;;;;;;;;29.00;74.10;;;;;;5015425;28;19913;-55
2024/04/06 08:32:13;;;;;;;;;;;29.20;72.50;;;;;;5003096;28;20420;-58
2024/04/06 08:34:38;;;;;;;;;;;28.90;73.80;;;;;;4995430;28;19910;-57
2024/04/06 08:37:04;;;;;;;;;;;29.70;69.70;;;;;;5023935;22;19953;-59
2024/04/06 08:39:30;;;;;;;;;;;29.30;69.70;;;;;;5015041;28;20004;-61
2024/04/06 08:41:56;;;;;;;;;;;30.00;68.90;;;;;;5015034;28;19905;-56
2024/04/06 08:44:26;;;;;;;;;;;29.80;72.00;;;;;;5014940;28;20435;-60
2024/04/06 08:46:52;;;;;;;;;;;29.60;72.40;;;;;;5002472;28;19929;-58
2024/04/06 08:49:17;;;;;;;;;;;29.70;71.80;;;;;;4995574;28;19933;-57
2024/04/06 08:51:44;;;;;;;;;;;29.90;68.90;;;;;;4995450;28;19960;-57
2024/04/06 08:54:09;;;;;;;;;;;30.20;69.00;;;;;;4994494;28;20001;-57
2024/04/06 08:56:35;;;;;;;;;;;29.30;71.20;;;;;;4995327;28;19953;-56
2024/04/06 08:59:01;;;;;;;;;;;29.20;67.90;;;;;;4995553;28;19917;-57
2024/04/06 09:01:27;;;;;;;;;;;28.20;69.20;;;;;;4995268;28;20365;-56
2024/04/06 09:03:53;;;;;;;;;;;28.20;68.60;;;;;;4977893;28;19933;-56
2024/04/06 09:06:18;;;;;;;;;;;27.60;71.80;;;;;;4993714;28;20361;-55
2024/04/06 09:08:44;;;;;;;;;;;27.60;71.60;;;;;;4995234;28;19913;-56
2024/04/06 09:11:12;;;;;;;;;;;27.30;71.30;;;;;;4977949;28;19906;-54
2024/04/06 09:13:43;;;;;;;;;;;27.10;71.50;;;;;;4995339;28;19924;-56
2024/04/06 09:16:08;;;;;;;;;;;27.50;70.80;;;;;;4995213;28;20397;-57
2024/04/06 09:18:34;;;;;;;;;;;27.10;71.60;;;;;;4994799;28;19906;-54
2024/04/06 09:21:00;;;;;;;;;;;27.20;72.30;;;;;;4994979;28;20015;-57
2024/04/06 09:23:25;;;;;;;;;;;27.40;72.20;;;;;;4993665;28;19912;-57
2024/04/06 09:26:00;;;;;;;;;;;27.70;70.40;;;;;;4995325;28;19906;-57
2024/04/06 09:28:26;;;;;;;;;;;27.50;69.10;;;;;;4993599;28;20465;-55
2024/04/06 09:30:55;;;;;;;;;;;27.40;70.90;;;;;;4994676;28;19914;-57
2024/04/06 09:33:22;;;;;;;;;;;27.50;70.10;;;;;;4994652;28;19984;-56
2024/04/06 09:35:48;;;;;;;;;;;27.60;69.70;;;;;;4994251;28;20297;-57
2024/04/06 09:38:14;;;;;;;;;;;28.10;68.90;;;;;;4994594;28;19906;-56
2024/04/06 09:40:46;;;;;;;;;;;28.00;72.50;;;;;;4977354;28;19918;-55
2024/04/06 09:43:15;;;;;;;;;;;28.30;70.10;;;;;;4994449;28;20411;-58
2024/04/06 09:45:41;;;;;;;;;;;28.30;68.20;;;;;;4994338;28;19910;-57
2024/04/06 09:48:08;;;;;;;;;;;28.30;70.10;;;;;;4994468;28;20550;-58
2024/04/06 09:50:35;;;;;;;;;;;28.30;69.00;;;;;;4994723;28;19992;-57
2024/04/06 09:53:02;;;;;;;;;;;28.70;68.60;;;;;;4994636;28;20258;-59
2024/04/06 09:55:29;;;;;;;;;;;28.40;67.90;;;;;;4994424;28;19913;-57
2024/04/06 09:57:55;;;;;;;;;;;28.50;69.50;;;;;;4994480;28;20353;-59
2024/04/06 10:00:21;;;;;;;;;;;28.70;70.90;;;;;;4994447;28;19956;-58
2024/04/06 10:02:49;;;;;;;;;;;28.20;69.00;;;;;;4994132;28;19906;-54
2024/04/06 10:05:15;;;;;;;;;;;27.90;68.80;;;;;;4994158;28;20327;-54
2024/04/06 10:07:44;;;;;;;;;;;27.60;69.80;;;;;;4994087;28;20048;-55
2024/04/06 10:10:10;;;;;;;;;;;26.80;69.30;;;;;;4994050;28;19906;-58
2024/04/06 10:12:42;;;;;;;;;;;26.50;69.10;;;;;;4994473;28;19913;-56
2024/04/06 10:15:11;;;;;;;;;;;26.30;70.00;;;;;;4994178;28;19905;-56
2024/04/06 10:17:40;;;;;;;;;;;25.90;70.90;;;;;;4994392;28;20357;-56
2024/04/06 10:20:08;;;;;;;;;;;25.60;71.40;;;;;;4993792;28;19944;-56
2024/04/06 10:22:42;;;;;;;;;;;25.60;73.30;;;;;;4993856;28;19963;-53
2024/04/06 10:25:07;;;;;;;;;;;25.70;73.80;;;;;;4993796;28;19908;-55
2024/04/06 10:27:37;;;;;;;;;;;25.60;71.00;;;;;;4993458;28;20012;-55
2024/04/06 10:30:03;;;;;;;;;;;25.70;71.10;;;;;;4993652;28;20008;-58
2024/04/06 10:32:30;;;;;;;;;;;25.80;71.10;;;;;;4993593;28;19906;-57
2024/04/06 10:34:59;;;;;;;;;;;25.70;71.40;;;;;;4993259;28;19952;-54
2024/04/06 10:37:24;;;;;;;;;;;25.80;71.30;;;;;;4993353;28;19914;-57
2024/04/06 10:39:50;;;;;;;;;;;25.60;71.20;;;;;;4979380;28;19998;-54
2024/04/06 10:42:15;;;;;;;;;;;25.60;69.80;;;;;;4993328;28;20008;-55
2024/04/06 10:44:41;;;;;;;;;;;25.60;71.40;;;;;;4993460;28;19905;-56
2024/04/06 10:47:10;;;;;;;;;;;25.80;72.40;;;;;;4992981;28;19948;-56
2024/04/06 10:49:35;;;;;;;;;;;26.20;71.70;;;;;;4993194;28;19932;-55
2024/04/06 10:52:01;;;;;;;;;;;26.40;70.00;;;;;;4993401;28;20349;-58
2024/04/06 10:54:26;;;;;;;;;;;26.40;70.70;;;;;;4993163;28;20101;-55
2024/04/06 10:56:52;;;;;;;;;;;26.60;71.40;;;;;;4993155;28;19905;-57
2024/04/06 10:59:18;;;;;;;;;;;26.30;69.30;;;;;;4993300;28;20393;-56
2024/04/06 11:01:43;;;;;;;;;;;26.30;70.70;;;;;;4992973;28;20004;-56
2024/04/06 11:04:12;;;;;;;;;;;26.20;71.50;;;;;;4992932;28;20402;-56
2024/04/06 11:06:37;;;;;;;;;;;26.00;70.40;;;;;;4992939;28;20332;-57
2024/04/06 11:09:06;;;;;;;;;;;26.00;72.70;;;;;;4992896;28;19972;-56
2024/04/06 11:11:31;;;;;;;;;;;25.90;72.20;;;;;;4993288;28;19909;-56
2024/04/06 11:13:57;;;;;;;;;;;25.80;70.50;;;;;;4992817;28;19956;-56
2024/04/06 11:16:22;;;;;;;;;;;25.80;72.60;;;;;;4993046;28;20409;-58
2024/04/06 11:18:49;;;;;;;;;;;25.70;68.90;;;;;;4992523;28;20270;-57
2024/04/06 11:21:14;;;;;;;;;;;25.50;69.90;;;;;;4993040;28;19948;-57
2024/04/06 11:23:40;;;;;;;;;;;25.50;70.60;;;;;;4993223;28;19913;-55
2024/04/06 11:26:06;;;;;;;;;;;25.50;71.70;;;;;;4992793;28;19997;-56
2024/04/06 11:28:32;;;;;;;;;;;25.60;70.90;;;;;;4992211;28;20056;-56
2024/04/06 11:30:59;;;;;;;;;;;25.70;70.10;;;;;;4992742;28;19968;-55
2024/04/06 11:33:25;;;;;;;;;;;25.60;69.50;;;;;;4991935;28;20358;-56
2024/04/06 11:35:50;;;;;;;;;;;25.50;68.70;;;;;;4992842;28;19925;-57
2024/04/06 11:38:16;;;;;;;;;;;25.40;68.40;;;;;;4992893;28;19908;-56
2024/04/06 11:40:47;;;;;;;;;;;25.40;67.90;;;;;;4978397;28;19913;-55
2024/04/06 11:43:15;;;;;;;;;;;25.40;69.40;;;;;;4992957;28;19992;-56
2024/04/06 11:45:42;;;;;;;;;;;25.30;69.10;;;;;;4992851;28;19921;-56
2024/04/06 11:48:08;;;;;;;;;;;25.20;67.60;;;;;;4992758;28;19916;-57
2024/04/06 11:50:33;;;;;;;;;;;25.20;67.80;;;;;;4992223;28;19941;-57
2024/04/06 11:52:59;;;;;;;;;;;25.30;68.00;;;;;;4992740;28;19956;-57
2024/04/06 11:55:24;;;;;;;;;;;25.30;67.80;;;;;;4992557;28;19928;-57
2024/04/06 11:57:50;;;;;;;;;;;25.30;67.00;;;;;;4992404;28;19992;-57
2024/04/06 12:00:15;;;;;;;;;;;25.20;68.30;;;;;;4992139;28;20444;-57
2024/04/06 12:02:44;;;;;;;;;;;25.10;68.20;;;;;;4992208;28;19909;-57
2024/04/06 12:05:10;;;;;;;;;;;25.20;69.60;;;;;;4992592;28;19952;-58
2024/04/06 12:07:38;;;;;;;;;;;25.20;68.20;;;;;;4992360;28;20358;-53
2024/04/06 12:10:07;;;;;;;;;;;25.20;70.10;;;;;;4992763;28;19921;-58
2024/04/06 12:12:32;;;;;;;;;;;25.20;69.20;;;;;;4992843;28;19909;-56
2024/04/06 12:14:58;;;;;;;;;;;25.10;70.00;;;;;;4992327;28;19921;-58
2024/04/06 12:17:29;;;;;;;;;;;25.00;68.60;;;;;;4992191;28;19916;-56
2024/04/06 12:19:55;;;;;;;;;;;25.00;69.50;;;;;;4992660;28;19913;-56
2024/04/06 12:22:21;;;;;;;;;;;24.90;68.30;;;;;;4992733;28;19910;-57
2024/04/06 12:24:46;;;;;;;;;;;24.80;68.60;;;;;;4992388;28;19906;-55
2024/04/06 12:27:14;;;;;;;;;;;24.90;70.30;;;;;;4991369;28;19910;-58
2024/04/06 12:29:39;;;;;;;;;;;25.00;69.60;;;;;;4992981;28;19916;-58
2024/04/06 12:32:05;;;;;;;;;;;25.10;70.80;;;;;;4996062;28;19984;-59
2024/04/06 12:34:31;;;;;;;;;;;25.20;68.80;;;;;;4995862;28;19964;-57
2024/04/06 12:36:57;;;;;;;;;;;25.30;70.60;;;;;;4995668;28;19968;-56
2024/04/06 12:39:23;;;;;;;;;;;25.40;67.50;;;;;;4995653;28;20352;-54
2024/04/06 12:41:48;;;;;;;;;;;25.40;69.00;;;;;;4981074;28;19913;-54
2024/04/06 12:44:14;;;;;;;;;;;25.40;69.30;;;;;;4995603;28;20382;-57
2024/04/06 12:46:39;;;;;;;;;;;25.40;67.70;;;;;;4995326;28;19906;-57
2024/04/06 12:49:05;;;;;;;;;;;25.40;68.30;;;;;;4994391;28;19911;-58
2024/04/06 12:51:30;;;;;;;;;;;25.40;67.60;;;;;;4995527;28;19929;-56
2024/04/06 12:53:55;;;;;;;;;;;25.50;68.90;;;;;;4994930;28;19905;-56
2024/04/06 12:56:21;;;;;;;;;;;25.40;69.30;;;;;;4995546;28;19913;-57
2024/04/06 12:58:46;;;;;;;;;;;25.40;68.20;;;;;;4995331;28;20374;-57
2024/04/06 13:01:12;;;;;;;;;;;25.30;67.80;;;;;;4994710;28;19967;-56
2024/04/06 13:03:38;;;;;;;;;;;25.30;69.30;;;;;;4994938;28;19906;-56
2024/04/06 13:06:04;;;;;;;;;;;25.30;67.90;;;;;;4995103;28;19906;-57
2024/04/06 13:08:30;;;;;;;;;;;25.30;68.70;;;;;;4994907;28;19964;-55
2024/04/06 13:10:55;;;;;;;;;;;25.30;68.90;;;;;;4995307;28;19905;-55
2024/04/06 13:13:22;;;;;;;;;;;25.20;69.60;;;;;;4995149;28;19909;-57
2024/04/06 13:15:47;;;;;;;;;;;25.30;69.40;;;;;;4995229;28;20380;-57
2024/04/06 13:18:13;;;;;;;;;;;25.40;69.70;;;;;;4994802;28;19905;-57
2024/04/06 13:20:40;;;;;;;;;;;25.50;68.90;;;;;;4994980;28;19906;-57
2024/04/06 13:23:07;;;;;;;;;;;25.50;68.40;;;;;;4994867;28;19905;-56
2024/04/06 13:25:32;;;;;;;;;;;25.60;67.00;;;;;;4995031;28;19996;-56
2024/04/06 13:27:58;;;;;;;;;;;25.50;65.80;;;;;;4994795;28;20465;-57
2024/04/06 13:30:25;;;;;;;;;;;25.50;67.40;;;;;;4995031;28;19913;-57
2024/04/06 13:32:51;;;;;;;;;;;25.40;66.10;;;;;;4994555;28;19917;-57
2024/04/06 13:35:16;;;;;;;;;;;25.40;67.00;;;;;;4994661;28;19906;-54
2024/04/06 13:37:42;;;;;;;;;;;25.50;67.10;;;;;;4994256;28;19914;-56
2024/04/06 13:40:07;;;;;;;;;;;25.50;65.80;;;;;;4979451;28;19952;-55
2024/04/06 13:42:37;;;;;;;;;;;25.50;66.60;;;;;;4994268;28;19915;-57
2024/04/06 13:45:05;;;;;;;;;;;25.50;66.90;;;;;;4994499;28;19912;-54
2024/04/06 13:47:31;;;;;;;;;;;25.50;67.00;;;;;;4994517;28;19933;-57
2024/04/06 13:49:56;;;;;;;;;;;25.50;67.10;;;;;;4994264;28;19909;-56
2024/04/06 13:52:22;;;;;;;;;;;25.60;67.10;;;;;;4994026;28;19906;-56
2024/04/06 13:54:47;;;;;;;;;;;25.60;66.10;;;;;;4994186;28;19906;-57
2024/04/06 13:57:13;;;;;;;;;;;25.70;66.60;;;;;;4993518;28;19906;-53
2024/04/06 13:59:39;;;;;;;;;;;25.70;66.80;;;;;;4994003;28;19932;-53
2024/04/06 14:02:04;;;;;;;;;;;25.80;67.40;;;;;;4994017;28;19917;-55
2024/04/06 14:04:30;;;;;;;;;;;25.90;67.90;;;;;;4994035;28;19906;-56
2024/04/06 14:06:56;;;;;;;;;;;26.00;66.00;;;;;;4993940;28;19916;-58
2024/04/06 14:09:25;;;;;;;;;;;26.10;66.40;;;;;;4993943;28;19909;-56